Station History

Weather Underground - logo

Station Historical Data
Daily Summary for December 2, 2017 Units:  English    Metric   Both
« Previous Day
Next Day »
Daily Weekly Monthly Yearly Custom
  High: Low: Average:
Temperature: 64.6 °F 37.6 °F 49.5 °F
Dew Point: 50.5 °F 36.3 °F 44.1 °F
Humidity: 96 % 57 % 83 %
Wind Speed: 2.3 mph 0.0 mph 0.3 mph
Wind Gust: 2.3 mph - -
Wind:- - SW
Pressure: 30.12 in 29.99 in -
Precipitation: 0.00 in    
Historical Graphs
 
 
Tabular Data for December 2, 2017
Time Temperature Dew Point Pressure Wind Wind Speed Wind Gust Humidity Rainfall Rate (Hourly)
00:03 43.4 °F 41.8 °F 30.07 in Calm     94 % 0.00 in
00:08 43.5 °F 41.9 °F 30.07 in Calm     94 % 0.00 in
00:23 43.1 °F 41.2 °F 30.07 in Calm     93 % 0.00 in
00:28 42.6 °F 40.4 °F 30.07 in Calm     92 % 0.00 in
00:43 41.6 °F 39.4 °F 30.07 in Calm     92 % 0.00 in
00:53 41.8 °F 39.9 °F 30.07 in Calm     93 % 0.00 in
00:58 42.1 °F 40.5 °F 30.06 in Calm     94 % 0.00 in
01:03 41.9 °F 40.0 °F 30.07 in Calm     93 % 0.00 in
01:19 41.2 °F 39.3 °F 30.07 in Calm     93 % 0.00 in
01:29 40.9 °F 39.0 °F 30.07 in Calm     93 % 0.00 in
01:34 40.8 °F 38.9 °F 30.07 in Calm     93 % 0.00 in
01:39 40.6 °F 38.7 °F 30.07 in Calm     93 % 0.00 in
01:44 40.7 °F 39.1 °F 30.07 in Calm     94 % 0.00 in
01:49 41.3 °F 40.0 °F 30.07 in Calm     95 % 0.00 in
01:59 41.8 °F 40.5 °F 30.07 in Calm     95 % 0.00 in
02:04 41.7 °F 40.1 °F 30.07 in Calm     94 % 0.00 in
02:24 41.4 °F 39.8 °F 30.07 in Calm     94 % 0.00 in
02:29 41.0 °F 39.1 °F 30.07 in Calm     93 % 0.00 in
02:34 40.6 °F 38.7 °F 30.07 in Calm     93 % 0.00 in
02:39 40.3 °F 38.4 °F 30.07 in Calm     93 % 0.00 in
02:44 39.9 °F 38.0 °F 30.07 in Calm     93 % 0.00 in
02:49 39.5 °F 37.6 °F 30.07 in Calm     93 % 0.00 in
02:59 39.2 °F 37.3 °F 30.06 in Calm     93 % 0.00 in
03:04 39.3 °F 37.7 °F 30.06 in Calm     94 % 0.00 in
03:14 39.3 °F 37.7 °F 30.06 in Calm     94 % 0.00 in
03:24 38.8 °F 36.9 °F 30.06 in Calm     93 % 0.00 in
03:34 38.6 °F 37.0 °F 30.06 in Calm     94 % 0.00 in
03:44 38.4 °F 36.8 °F 30.06 in Calm     94 % 0.00 in
03:49 38.3 °F 36.7 °F 30.07 in Calm     94 % 0.00 in
04:00 38.0 °F 36.4 °F 30.06 in Calm     94 % 0.00 in
04:10 38.2 °F 36.6 °F 30.07 in Calm     94 % 0.00 in
04:15 38.2 °F 36.6 °F 30.07 in Calm     94 % 0.00 in
04:20 38.2 °F 36.6 °F 30.07 in Calm     94 % 0.00 in
04:25 38.0 °F 36.4 °F 30.07 in Calm     94 % 0.00 in
04:30 37.9 °F 36.3 °F 30.07 in Calm     94 % 0.00 in
04:40 38.2 °F 36.9 °F 30.07 in Calm     95 % 0.00 in
04:45 38.1 °F 36.8 °F 30.07 in Calm     95 % 0.00 in
04:50 37.9 °F 36.3 °F 30.07 in Calm     94 % 0.00 in
04:55 37.9 °F 36.6 °F 30.07 in Calm     95 % 0.00 in
05:00 37.9 °F 36.6 °F 30.07 in Calm     95 % 0.00 in
05:10 37.7 °F 36.4 °F 30.07 in Calm     95 % 0.00 in
05:20 37.7 °F 36.4 °F 30.08 in Calm     95 % 0.00 in
05:25 37.6 °F 36.3 °F 30.08 in Calm     95 % 0.00 in
05:30 37.9 °F 36.6 °F 30.08 in Calm     95 % 0.00 in
05:35 38.5 °F 37.2 °F 30.08 in Calm     95 % 0.00 in
05:40 38.8 °F 37.8 °F 30.08 in Calm     96 % 0.00 in
05:45 38.7 °F 37.7 °F 30.08 in Calm     96 % 0.00 in
05:50 38.8 °F 37.8 °F 30.08 in Calm     96 % 0.00 in
05:55 38.9 °F 37.9 °F 30.08 in Calm     96 % 0.00 in
06:00 38.8 °F 37.5 °F 30.08 in Calm     95 % 0.00 in
06:05 39.0 °F 38.0 °F 30.08 in Calm     96 % 0.00 in
06:10 39.1 °F 38.1 °F 30.08 in Calm     96 % 0.00 in
06:15 39.1 °F 38.1 °F 30.09 in Calm     96 % 0.00 in
06:21 39.0 °F 38.0 °F 30.09 in Calm     96 % 0.00 in
06:26 39.4 °F 38.4 °F 30.09 in Calm     96 % 0.00 in
06:31 39.5 °F 38.5 °F 30.09 in Calm     96 % 0.00 in
06:36 39.4 °F 38.4 °F 30.09 in Calm     96 % 0.00 in
06:41 39.5 °F 38.5 °F 30.09 in Calm     96 % 0.00 in
06:46 39.7 °F 38.7 °F 30.09 in Calm     96 % 0.00 in
06:51 39.9 °F 38.9 °F 30.09 in Calm     96 % 0.00 in
06:56 40.0 °F 39.0 °F 30.09 in Calm     96 % 0.00 in
07:01 40.0 °F 39.0 °F 30.09 in Calm     96 % 0.00 in
07:06 40.1 °F 39.1 °F 30.09 in Calm     96 % 0.00 in
07:07 40.0 °F 39.0 °F 30.09 in Calm     96 % 0.00 in
07:17 40.4 °F 39.4 °F 30.09 in Calm     96 % 0.00 in
07:22 40.4 °F 39.4 °F 30.09 in Calm     96 % 0.00 in
07:27 40.4 °F 39.4 °F 30.08 in Calm     96 % 0.00 in
07:32 40.6 °F 39.5 °F 30.08 in Calm     96 % 0.00 in
07:37 40.9 °F 39.8 °F 30.08 in Calm     96 % 0.00 in
07:47 42.0 °F 40.9 °F 30.08 in Calm     96 % 0.00 in
07:52 42.7 °F 41.6 °F 30.09 in Calm     96 % 0.00 in
07:57 42.5 °F 41.4 °F 30.09 in Calm     96 % 0.00 in
08:02 42.8 °F 41.7 °F 30.09 in Calm     96 % 0.00 in
08:05 43.1 °F 42.0 °F 30.09 in Calm     96 % 0.00 in
08:10 43.5 °F 42.2 °F 30.10 in Calm     95 % 0.00 in
08:15 43.9 °F 42.6 °F 30.10 in Calm     95 % 0.00 in
08:20 44.6 °F 43.3 °F 30.10 in Calm     95 % 0.00 in
08:30 46.9 °F 45.3 °F 30.10 in Calm     94 % 0.00 in
08:31 47.2 °F 45.3 °F 30.10 in Calm     93 % 0.00 in
08:41 48.6 °F 45.8 °F 30.10 in SSE 2.3 mph 2.3 mph 90 % 0.00 in
08:46 49.0 °F 45.6 °F 30.10 in SSE 1.2 mph 1.2 mph 88 % 0.00 in
08:55 49.1 °F 45.4 °F 30.10 in South 2.3 mph 2.3 mph 87 % 0.00 in
09:05 49.9 °F 45.9 °F 30.11 in SSE 1.2 mph 1.2 mph 86 % 0.00 in
09:10 50.4 °F 46.4 °F 30.11 in East 1.2 mph 1.2 mph 86 % 0.00 in
09:15 50.8 °F 46.8 °F 30.11 in SE 1.2 mph   86 % 0.00 in
09:20 51.2 °F 46.5 °F 30.11 in NW 2.3 mph 2.3 mph 84 % 0.00 in
09:25 51.4 °F 46.4 °F 30.11 in SE 2.3 mph 2.3 mph 83 % 0.00 in
09:30 51.8 °F 46.8 °F 30.11 in SSE 2.3 mph 2.3 mph 83 % 0.00 in
09:35 52.1 °F 46.8 °F 30.11 in SSE 1.0 mph 1.0 mph 82 % 0.00 in
09:40 52.5 °F 47.2 °F 30.11 in SE 1.0 mph 1.0 mph 82 % 0.00 in
09:45 52.7 °F 47.0 °F 30.12 in Calm   0.1 mph 81 % 0.00 in
09:50 52.9 °F 46.6 °F 30.11 in Calm     79 % 0.00 in
09:55 53.0 °F 47.0 °F 30.12 in West 1.2 mph   80 % 0.00 in
10:00 53.2 °F 46.9 °F 30.11 in Calm     79 % 0.00 in
10:10 53.0 °F 46.7 °F 30.11 in West 1.2 mph   79 % 0.00 in
10:15 53.3 °F 47.0 °F 30.11 in WNW 1.2 mph   79 % 0.00 in
10:20 53.7 °F 47.3 °F 30.11 in Calm     79 % 0.00 in
10:25 54.2 °F 47.5 °F 30.11 in Calm     78 % 0.00 in
10:30 54.6 °F 47.5 °F 30.10 in NW 1.0 mph 1.0 mph 77 % 0.00 in
10:35 54.7 °F 47.3 °F 30.10 in Calm     76 % 0.00 in
10:40 55.0 °F 47.6 °F 30.10 in Calm     76 % 0.00 in
10:45 55.2 °F 47.4 °F 30.10 in Calm     75 % 0.00 in
10:55 55.7 °F 47.5 °F 30.09 in SSE 1.2 mph   74 % 0.00 in
11:00 56.5 °F 47.9 °F 30.09 in WNW 1.2 mph   73 % 0.00 in
11:11 57.4 °F 48.1 °F 30.08 in WSW 1.2 mph   71 % 0.00 in
11:16 57.2 °F 47.9 °F 30.08 in SW 2.3 mph 2.3 mph 71 % 0.00 in
11:26 57.8 °F 48.5 °F 30.07 in Calm   0.1 mph 71 % 0.00 in
11:31 58.5 °F 49.1 °F 30.07 in WNW 1.2 mph 1.2 mph 71 % 0.00 in
11:36 58.7 °F 48.9 °F 30.06 in NW 1.2 mph 1.2 mph 70 % 0.00 in
11:41 59.0 °F 48.8 °F 30.06 in Calm     69 % 0.00 in
11:46 59.3 °F 48.7 °F 30.05 in NW 1.2 mph 1.2 mph 68 % 0.00 in
12:01 59.9 °F 48.9 °F 30.05 in Calm     67 % 0.00 in
12:06 60.5 °F 48.7 °F 30.05 in North 2.3 mph 2.3 mph 65 % 0.00 in
12:11 60.8 °F 48.5 °F 30.04 in East 1.2 mph 1.2 mph 64 % 0.00 in
12:17 61.4 °F 49.1 °F 30.04 in WNW 2.3 mph 2.3 mph 64 % 0.00 in
12:22 61.4 °F 49.1 °F 30.04 in Calm     64 % 0.00 in
12:27 61.7 °F 49.0 °F 30.03 in Calm     63 % 0.00 in
12:32 61.8 °F 49.1 °F 30.03 in NW 2.3 mph 2.3 mph 63 % 0.00 in
12:37 61.9 °F 48.3 °F 30.03 in NNW 1.2 mph 1.2 mph 61 % 0.00 in
12:47 62.4 °F 49.2 °F 30.03 in Calm     62 % 0.00 in
12:52 62.6 °F 48.5 °F 30.02 in SE 1.2 mph   60 % 0.00 in
12:57 63.0 °F 48.9 °F 30.02 in North 1.2 mph 1.2 mph 60 % 0.00 in
13:02 63.2 °F 49.5 °F 30.02 in Calm     61 % 0.00 in
13:13 63.7 °F 49.1 °F 30.01 in NW 1.2 mph 1.2 mph 59 % 0.00 in
13:18 63.6 °F 49.0 °F 30.01 in Calm     59 % 0.00 in
13:23 63.7 °F 50.0 °F 30.01 in WNW 1.2 mph 1.2 mph 61 % 0.00 in
13:28 63.7 °F 49.1 °F 30.01 in West 2.0 mph 2.0 mph 59 % 0.00 in
13:33 63.7 °F 49.1 °F 30.01 in NW 2.3 mph 2.3 mph 59 % 0.00 in
13:44 64.0 °F 49.4 °F 30.00 in Calm     59 % 0.00 in
13:49 64.1 °F 49.0 °F 30.00 in WSW 1.2 mph 1.2 mph 58 % 0.00 in
13:54 64.1 °F 49.0 °F 30.00 in ENE 1.2 mph 1.2 mph 58 % 0.00 in
13:59 64.2 °F 49.1 °F 30.00 in Calm     58 % 0.00 in
14:04 64.6 °F 50.4 °F 29.99 in Calm     60 % 0.00 in
14:09 64.6 °F 49.0 °F 29.99 in NW 2.3 mph 2.3 mph 57 % 0.00 in
14:14 64.4 °F 49.3 °F 30.00 in Calm   0.1 mph 58 % 0.00 in
14:19 64.4 °F 48.8 °F 30.00 in WNW 1.2 mph   57 % 0.00 in
14:24 64.3 °F 48.7 °F 29.99 in Calm     57 % 0.00 in
14:40 64.1 °F 49.5 °F 29.99 in NW 1.2 mph   59 % 0.00 in
14:45 64.0 °F 48.9 °F 29.99 in Calm     58 % 0.00 in
14:55 63.8 °F 49.2 °F 29.99 in Calm     59 % 0.00 in
15:05 63.7 °F 49.1 °F 29.99 in WNW 1.2 mph 1.2 mph 59 % 0.00 in
15:10 63.7 °F 49.5 °F 29.99 in WNW 1.2 mph 1.2 mph 60 % 0.00 in
15:15 63.5 °F 49.8 °F 29.99 in West 1.2 mph 1.2 mph 61 % 0.00 in
15:20 63.3 °F 50.1 °F 29.99 in Calm     62 % 0.00 in
15:25 62.9 °F 50.5 °F 29.99 in Calm     64 % 0.00 in
15:30 62.6 °F 50.2 °F 29.99 in Calm     64 % 0.00 in
15:35 62.3 °F 50.4 °F 29.99 in Calm     65 % 0.00 in
15:50 61.5 °F 50.0 °F 29.99 in Calm     66 % 0.00 in
15:55 61.3 °F 50.2 °F 29.99 in Calm     67 % 0.00 in
16:00 61.0 °F 50.4 °F 29.99 in Calm     68 % 0.00 in
16:05 60.7 °F 50.1 °F 29.99 in Calm     68 % 0.00 in
16:16 60.2 °F 49.6 °F 29.99 in Calm     68 % 0.00 in
16:21 59.9 °F 48.9 °F 29.99 in Calm     67 % 0.00 in
16:26 59.9 °F 48.9 °F 29.99 in Calm     67 % 0.00 in
16:36 59.5 °F 48.9 °F 29.99 in Calm     68 % 0.00 in
16:38 59.2 °F 48.6 °F 30.00 in Calm     68 % 0.00 in
16:43 58.9 °F 48.7 °F 30.00 in Calm     69 % 0.00 in
16:48 58.6 °F 48.5 °F 30.00 in Calm     69 % 0.00 in
16:53 58.4 °F 48.7 °F 30.00 in Calm     70 % 0.00 in
16:58 58.2 °F 48.5 °F 29.99 in Calm     70 % 0.00 in
17:03 58.0 °F 48.6 °F 29.99 in Calm     71 % 0.00 in
17:08 57.4 °F 48.4 °F 30.00 in Calm     72 % 0.00 in
17:13 57.0 °F 48.4 °F 29.99 in Calm     73 % 0.00 in
17:18 56.5 °F 48.3 °F 30.00 in Calm     74 % 0.00 in
17:28 55.9 °F 48.1 °F 29.99 in Calm     75 % 0.00 in
17:33 55.2 °F 47.8 °F 29.99 in Calm     76 % 0.00 in
17:38 54.6 °F 47.9 °F 30.00 in Calm     78 % 0.00 in
17:43 54.0 °F 47.6 °F 30.00 in Calm     79 % 0.00 in
17:48 53.6 °F 47.6 °F 30.00 in Calm     80 % 0.00 in
17:53 53.2 °F 47.2 °F 30.00 in Calm     80 % 0.00 in
17:58 52.9 °F 47.2 °F 30.00 in Calm     81 % 0.00 in
18:03 52.5 °F 47.2 °F 30.00 in Calm     82 % 0.00 in
18:13 51.7 °F 47.0 °F 30.00 in Calm     84 % 0.00 in
18:23 51.2 °F 46.8 °F 30.00 in Calm     85 % 0.00 in
18:29 51.1 °F 46.7 °F 30.00 in Calm     85 % 0.00 in
18:39 50.6 °F 46.3 °F 30.01 in Calm     85 % 0.00 in
18:44 50.2 °F 45.9 °F 30.01 in Calm     85 % 0.00 in
18:49 49.9 °F 45.9 °F 30.01 in Calm     86 % 0.00 in
18:54 49.6 °F 45.9 °F 30.01 in Calm     87 % 0.00 in
18:59 49.4 °F 46.0 °F 30.01 in Calm     88 % 0.00 in
19:04 49.5 °F 46.1 °F 30.01 in Calm     88 % 0.00 in
19:09 49.7 °F 46.3 °F 30.01 in Calm     88 % 0.00 in
19:19 49.6 °F 46.2 °F 30.02 in Calm     88 % 0.00 in
19:29 49.7 °F 46.3 °F 30.02 in Calm     88 % 0.00 in
19:39 50.0 °F 46.3 °F 30.02 in Calm     87 % 0.00 in
19:44 49.9 °F 46.2 °F 30.02 in Calm     87 % 0.00 in
19:59 49.2 °F 45.5 °F 30.03 in ENE 1.2 mph   87 % 0.00 in
20:04 49.1 °F 45.7 °F 30.03 in Calm   0.1 mph 88 % 0.00 in
20:09 48.9 °F 45.5 °F 30.03 in Calm     88 % 0.00 in
20:14 49.0 °F 45.6 °F 30.03 in ENE 1.0 mph 1.0 mph 88 % 0.00 in
20:19 49.0 °F 45.6 °F 30.03 in East 1.2 mph   88 % 0.00 in
20:24 49.1 °F 45.7 °F 30.03 in Calm     88 % 0.00 in
20:29 49.0 °F 45.6 °F 30.03 in Calm     88 % 0.00 in
20:34 48.9 °F 45.5 °F 30.03 in Calm     88 % 0.00 in
20:39 48.8 °F 45.4 °F 30.03 in Calm     88 % 0.00 in
20:49 48.5 °F 45.4 °F 30.03 in Calm     89 % 0.00 in
20:59 48.1 °F 45.0 °F 30.03 in Calm     89 % 0.00 in
21:04 47.8 °F 44.7 °F 30.03 in Calm     89 % 0.00 in
21:14 47.4 °F 44.6 °F 30.03 in Calm     90 % 0.00 in
21:19 47.2 °F 44.4 °F 30.04 in Calm     90 % 0.00 in
21:24 47.1 °F 44.6 °F 30.04 in Calm     91 % 0.00 in
21:34 46.8 °F 44.3 °F 30.04 in Calm     91 % 0.00 in
21:39 46.7 °F 44.2 °F 30.03 in Calm     91 % 0.00 in
21:44 46.6 °F 44.1 °F 30.03 in Calm     91 % 0.00 in
21:54 46.3 °F 43.8 °F 30.04 in Calm     91 % 0.00 in
21:59 45.9 °F 43.4 °F 30.04 in Calm     91 % 0.00 in
22:04 45.7 °F 43.5 °F 30.04 in Calm     92 % 0.00 in
22:09 45.8 °F 43.6 °F 30.04 in Calm     92 % 0.00 in
22:14 45.7 °F 43.5 °F 30.04 in Calm     92 % 0.00 in
22:24 45.9 °F 43.7 °F 30.04 in Calm     92 % 0.00 in
22:29 45.3 °F 42.8 °F 30.03 in Calm     91 % 0.00 in
22:39 44.8 °F 42.3 °F 30.03 in Calm     91 % 0.00 in
22:54 44.4 °F 42.2 °F 30.03 in Calm     92 % 0.00 in
22:59 44.4 °F 42.2 °F 30.02 in Calm     92 % 0.00 in
23:04 44.6 °F 42.4 °F 30.02 in Calm     92 % 0.00 in
23:10 44.7 °F 42.5 °F 30.02 in Calm     92 % 0.00 in
23:15 44.6 °F 42.4 °F 30.03 in Calm     92 % 0.00 in
23:40 44.3 °F 42.4 °F 30.03 in Calm     93 % 0.00 in
23:45 44.1 °F 41.9 °F 30.03 in Calm     92 % 0.00 in
23:50 43.9 °F 41.7 °F 30.03 in ESE 1.2 mph   92 % 0.00 in
23:55 44.1 °F 42.2 °F 30.03 in Calm     93 % 0.00 in
Park Place, Exeter, Tulare County, California, USA
Compliments of Weather Underground - 2.5 mb